sim
Sign-in with your pilot id or email,
or register
Callsign
Passwort

Schedule Details

Flight Number: OEO7648
Departure: Munich Airport (EDDM) at 12:45
Arrival: Hong Kong International Airport (VHHH) at 23:20

Weather Information
Getting current METAR information for EDDM 190420Z 31002KT CAVOK 05/04 Q1020 NOSIG
Getting current METAR information for VHHH 190430Z 11004KT 050V180 9999 VCSH FEW012 SCT028 29/26 Q1012 NOSIG

Schedule Frequency

Route Map